createdAt,value
2019-04-27T00:06:13.563Z,14.43
2019-04-27T00:16:36.280Z,10.50
2019-04-27T00:26:43.347Z,11.67
2019-04-27T00:37:09.192Z,15.10
2019-04-27T00:47:14.936Z,17.63
2019-04-27T00:57:22.882Z,15.87
2019-04-27T01:07:29.609Z,11.27
2019-04-27T01:17:35.211Z,7.57
2019-04-27T01:27:45.399Z,11.80
2019-04-27T01:37:50.937Z,19.03
2019-04-27T01:47:56.153Z,13.67
2019-04-27T01:58:01.112Z,15.73
2019-04-27T02:08:09.413Z,23.03
2019-04-27T02:18:14.693Z,21.10
2019-04-27T02:28:33.785Z,21.33
2019-04-27T02:38:40.702Z,19.30
2019-04-27T02:48:56.670Z,27.73
2019-04-27T02:58:53.882Z,23.80
2019-04-27T03:09:00.484Z,22.77
2019-04-27T03:19:18.062Z,23.83
2019-04-27T03:29:23.018Z,23.20
2019-04-27T03:39:30.365Z,25.73
2019-04-27T03:49:37.812Z,22.37
2019-04-27T04:00:00.958Z,22.83
2019-04-27T04:10:06.866Z,24.47
2019-04-27T04:20:13.561Z,24.93
2019-04-27T04:30:19.975Z,22.60
2019-04-27T04:40:30.635Z,23.23
2019-04-27T04:50:36.856Z,25.03
2019-04-27T05:00:43.493Z,24.13
2019-04-27T05:10:49.665Z,13.30
2019-04-27T05:20:58.601Z,12.47
2019-04-27T05:31:04.532Z,10.33
2019-04-27T05:41:10.131Z,9.20
2019-04-27T05:51:21.339Z,8.93
2019-04-27T06:01:26.893Z,11.13
2019-04-27T06:11:32.073Z,10.23
2019-04-27T06:21:36.981Z,10.23
2019-04-27T06:31:42.013Z,8.17
2019-04-27T06:41:49.010Z,9.30
2019-04-27T06:51:54.683Z,9.57
2019-04-27T07:02:00.880Z,12.70
2019-04-27T07:12:09.804Z,8.43
2019-04-27T07:22:20.122Z,7.63
2019-04-27T07:32:44.295Z,9.70
2019-04-27T07:42:51.965Z,7.90
2019-04-27T07:52:58.540Z,7.87
2019-04-27T08:03:36.959Z,8.23
2019-04-27T08:13:51.152Z,9.10
2019-04-27T08:23:58.656Z,10.00
2019-04-27T08:34:03.850Z,9.63
2019-04-27T08:44:09.808Z,10.50
2019-04-27T08:54:15.050Z,9.40
2019-04-27T09:04:20.201Z,9.93
2019-04-27T09:14:36.150Z,9.53
2019-04-27T09:24:41.193Z,9.13
2019-04-27T09:34:46.685Z,12.17
2019-04-27T09:44:52.130Z,10.60
2019-04-27T09:54:57.216Z,11.07
2019-04-27T10:05:02.255Z,20.63
2019-04-27T10:15:08.254Z,16.33
2019-04-27T10:25:26.889Z,14.37
2019-04-27T10:35:31.881Z,15.53
2019-04-27T10:45:37.903Z,19.90
2019-04-27T10:55:43.042Z,15.10
2019-04-27T11:06:01.651Z,17.20
2019-04-27T11:16:08.757Z,23.30
2019-04-27T11:26:15.973Z,12.53
2019-04-27T11:36:25.772Z,14.67
2019-04-27T11:46:31.080Z,18.03
2019-04-27T11:56:36.287Z,14.13
2019-04-27T12:06:41.564Z,23.10
2019-04-27T12:16:49.869Z,17.27
2019-04-27T12:27:15.976Z,12.93
2019-04-27T12:37:21.265Z,41.50
2019-04-27T12:47:26.379Z,10.50
2019-04-27T12:57:45.695Z,10.50
2019-04-27T13:07:51.729Z,16.10
2019-04-27T13:18:05.608Z,15.33
2019-04-27T13:28:12.145Z,14.80
2019-04-27T13:38:19.493Z,14.43
2019-04-27T13:48:29.565Z,17.40
2019-04-27T13:58:35.959Z,17.47
2019-04-27T14:08:44.451Z,20.37
2019-04-27T14:18:53.050Z,23.30
2019-04-27T14:29:00.110Z,25.13
2019-04-27T14:39:08.857Z,30.27
2019-04-27T14:49:15.813Z,29.33
2019-04-27T14:59:20.978Z,32.70
2019-04-27T15:09:26.773Z,33.23
2019-04-27T15:19:34.794Z,35.23
2019-04-27T15:29:40.580Z,30.97
2019-04-27T15:39:58.269Z,35.90
2019-04-27T15:50:04.172Z,35.53
2019-04-27T16:00:17.572Z,73.00
2019-04-27T16:10:20.157Z,46.40
2019-04-27T16:20:34.860Z,47.47
2019-04-27T16:30:45.608Z,64.13
2019-04-27T16:40:54.771Z,41.03
2019-04-27T16:50:59.362Z,39.37
2019-04-27T17:01:12.212Z,41.03
2019-04-27T17:11:19.605Z,46.97
2019-04-27T17:21:28.806Z,59.80
2019-04-27T17:31:38.143Z,55.10
2019-04-27T17:41:49.130Z,59.67
2019-04-27T17:51:51.046Z,71.17
2019-04-27T18:02:00.802Z,72.50
2019-04-27T18:12:08.112Z,77.50
2019-04-27T18:22:11.891Z,73.93
2019-04-27T18:32:17.336Z,88.10
2019-04-27T18:42:27.203Z,77.20
2019-04-27T18:52:49.951Z,79.90
2019-04-27T19:02:56.096Z,62.30
2019-04-27T19:13:02.127Z,78.10
2019-04-27T19:23:08.800Z,82.73
2019-04-27T19:33:14.339Z,76.90
2019-04-27T19:43:19.376Z,83.83
2019-04-27T19:53:24.651Z,75.53
2019-04-27T20:03:33.437Z,83.47
2019-04-27T20:24:43.993Z,66.00
2019-04-27T20:34:52.949Z,64.00
2019-04-27T20:44:58.513Z,63.90
2019-04-27T20:55:08.199Z,67.67
2019-04-27T21:05:37.409Z,57.57
2019-04-27T21:15:43.139Z,53.37
2019-04-27T21:25:51.133Z,55.27
2019-04-27T21:35:56.019Z,51.93
2019-04-27T21:46:01.669Z,52.90
2019-04-27T21:56:11.047Z,52.90
2019-04-27T22:06:16.455Z,54.17
2019-04-27T22:16:22.257Z,47.10
2019-04-27T22:26:27.923Z,51.10
2019-04-27T22:36:33.491Z,51.20
2019-04-27T22:46:41.060Z,39.37
2019-04-27T22:56:48.409Z,45.23
2019-04-27T23:06:54.335Z,42.50
2019-04-27T23:17:17.823Z,51.60
2019-04-27T23:27:34.187Z,46.23
2019-04-27T23:37:39.811Z,46.83
2019-04-27T23:47:45.363Z,51.87
2019-04-27T23:57:51.000Z,44.23
